sensor_id;sensor_type;location;lat;lon;timestamp;P1;durP1;ratioP1;P2;durP2;ratioP2
21472;SDS011;10898;48.072;11.682;2023-05-10T00:01:58;3.38;;;1.00;;
21472;SDS011;10898;48.072;11.682;2023-05-10T00:04:01;1.40;;;1.30;;
21472;SDS011;10898;48.072;11.682;2023-05-10T00:06:03;1.88;;;0.98;;
21472;SDS011;10898;48.072;11.682;2023-05-10T00:08:05;1.67;;;1.20;;
21472;SDS011;10898;48.072;11.682;2023-05-10T00:10:08;1.13;;;1.10;;
21472;SDS011;10898;48.072;11.682;2023-05-10T00:12:10;1.85;;;1.10;;
21472;SDS011;10898;48.072;11.682;2023-05-10T00:14:12;3.13;;;0.95;;
21472;SDS011;10898;48.072;11.682;2023-05-10T00:16:14;1.05;;;1.05;;
21472;SDS011;10898;48.072;11.682;2023-05-10T00:18:17;1.33;;;1.10;;
21472;SDS011;10898;48.072;11.682;2023-05-10T00:20:19;1.13;;;1.13;;
21472;SDS011;10898;48.072;11.682;2023-05-10T00:22:21;1.23;;;1.13;;
21472;SDS011;10898;48.072;11.682;2023-05-10T00:24:24;1.00;;;1.00;;
21472;SDS011;10898;48.072;11.682;2023-05-10T00:26:26;2.08;;;1.05;;
21472;SDS011;10898;48.072;11.682;2023-05-10T00:28:28;1.00;;;1.00;;
21472;SDS011;10898;48.072;11.682;2023-05-10T00:30:30;2.25;;;0.98;;
21472;SDS011;10898;48.072;11.682;2023-05-10T00:32:32;5.20;;;1.05;;
21472;SDS011;10898;48.072;11.682;2023-05-10T00:34:35;1.15;;;1.08;;
21472;SDS011;10898;48.072;11.682;2023-05-10T00:36:37;1.30;;;1.20;;
21472;SDS011;10898;48.072;11.682;2023-05-10T00:38:39;1.60;;;1.30;;
21472;SDS011;10898;48.072;11.682;2023-05-10T00:40:41;1.08;;;0.98;;
21472;SDS011;10898;48.072;11.682;2023-05-10T00:42:43;1.17;;;1.15;;
21472;SDS011;10898;48.072;11.682;2023-05-10T00:44:46;1.10;;;1.10;;
21472;SDS011;10898;48.072;11.682;2023-05-10T00:46:48;2.97;;;1.13;;
21472;SDS011;10898;48.072;11.682;2023-05-10T00:50:53;1.30;;;0.88;;
21472;SDS011;10898;48.072;11.682;2023-05-10T00:52:55;1.40;;;1.10;;
21472;SDS011;10898;48.072;11.682;2023-05-10T00:54:57;2.08;;;0.90;;
21472;SDS011;10898;48.072;11.682;2023-05-10T00:57:00;0.80;;;0.80;;
21472;SDS011;10898;48.072;11.682;2023-05-10T00:59:02;4.60;;;1.00;;
21472;SDS011;10898;48.072;11.682;2023-05-10T01:01:04;1.00;;;0.90;;
21472;SDS011;10898;48.072;11.682;2023-05-10T01:03:07;1.25;;;0.98;;
21472;SDS011;10898;48.072;11.682;2023-05-10T01:05:09;0.85;;;0.85;;
21472;SDS011;10898;48.072;11.682;2023-05-10T01:07:11;1.05;;;1.00;;
21472;SDS011;10898;48.072;11.682;2023-05-10T01:09:14;1.50;;;0.80;;
21472;SDS011;10898;48.072;11.682;2023-05-10T01:11:16;3.83;;;0.85;;
21472;SDS011;10898;48.072;11.682;2023-05-10T01:13:22;1.17;;;1.08;;
21472;SDS011;10898;48.072;11.682;2023-05-10T01:15:28;1.67;;;0.88;;
21472;SDS011;10898;48.072;11.682;2023-05-10T01:17:31;3.22;;;1.00;;
21472;SDS011;10898;48.072;11.682;2023-05-10T01:19:34;2.40;;;1.10;;
21472;SDS011;10898;48.072;11.682;2023-05-10T01:21:43;2.72;;;1.77;;
21472;SDS011;10898;48.072;11.682;2023-05-10T01:34:23;0.95;;;0.80;;
21472;SDS011;10898;48.072;11.682;2023-05-10T01:39:17;0.88;;;0.80;;
21472;SDS011;10898;48.072;11.682;2023-05-10T01:43:28;1.25;;;0.80;;
21472;SDS011;10898;48.072;11.682;2023-05-10T01:45:39;0.70;;;0.70;;
21472;SDS011;10898;48.072;11.682;2023-05-10T01:47:46;0.75;;;0.75;;
21472;SDS011;10898;48.072;11.682;2023-05-10T01:49:50;1.38;;;0.80;;
21472;SDS011;10898;48.072;11.682;2023-05-10T01:51:54;1.27;;;0.77;;
21472;SDS011;10898;48.072;11.682;2023-05-10T01:54:02;1.35;;;0.63;;
21472;SDS011;10898;48.072;11.682;2023-05-10T01:56:04;0.75;;;0.75;;
21472;SDS011;10898;48.072;11.682;2023-05-10T01:58:08;0.85;;;0.85;;
21472;SDS011;10898;48.072;11.682;2023-05-10T02:00:11;0.70;;;0.70;;
21472;SDS011;10898;48.072;11.682;2023-05-10T02:02:14;1.95;;;0.90;;
21472;SDS011;10898;48.072;11.682;2023-05-10T02:04:16;1.05;;;0.80;;
21472;SDS011;10898;48.072;11.682;2023-05-10T02:06:19;1.35;;;0.80;;
21472;SDS011;10898;48.072;11.682;2023-05-10T02:08:22;1.17;;;0.80;;
21472;SDS011;10898;48.072;11.682;2023-05-10T02:10:25;2.13;;;0.90;;
21472;SDS011;10898;48.072;11.682;2023-05-10T02:12:28;0.80;;;0.80;;
21472;SDS011;10898;48.072;11.682;2023-05-10T02:14:32;1.42;;;0.90;;
21472;SDS011;10898;48.072;11.682;2023-05-10T02:16:36;0.75;;;0.75;;
21472;SDS011;10898;48.072;11.682;2023-05-10T02:18:39;1.15;;;0.80;;
21472;SDS011;10898;48.072;11.682;2023-05-10T02:20:43;0.90;;;0.90;;
21472;SDS011;10898;48.072;11.682;2023-05-10T02:22:48;0.90;;;0.90;;
21472;SDS011;10898;48.072;11.682;2023-05-10T02:24:51;0.80;;;0.80;;
21472;SDS011;10898;48.072;11.682;2023-05-10T02:26:53;0.80;;;0.80;;
21472;SDS011;10898;48.072;11.682;2023-05-10T02:28:56;1.67;;;1.02;;
21472;SDS011;10898;48.072;11.682;2023-05-10T02:33:02;1.25;;;0.88;;
21472;SDS011;10898;48.072;11.682;2023-05-10T02:35:07;0.98;;;0.98;;
21472;SDS011;10898;48.072;11.682;2023-05-10T02:37:10;2.10;;;1.00;;
21472;SDS011;10898;48.072;11.682;2023-05-10T02:41:15;0.90;;;0.90;;
21472;SDS011;10898;48.072;11.682;2023-05-10T02:43:18;1.80;;;0.93;;
21472;SDS011;10898;48.072;11.682;2023-05-10T02:45:21;1.08;;;0.98;;
21472;SDS011;10898;48.072;11.682;2023-05-10T02:47:23;0.80;;;0.80;;
21472;SDS011;10898;48.072;11.682;2023-05-10T02:49:26;1.05;;;1.00;;
21472;SDS011;10898;48.072;11.682;2023-05-10T02:51:30;2.15;;;0.98;;
21472;SDS011;10898;48.072;11.682;2023-05-10T02:53:33;0.90;;;0.90;;
21472;SDS011;10898;48.072;11.682;2023-05-10T02:55:36;3.17;;;1.00;;
21472;SDS011;10898;48.072;11.682;2023-05-10T02:57:41;1.83;;;1.13;;
21472;SDS011;10898;48.072;11.682;2023-05-10T02:59:43;2.17;;;0.95;;
21472;SDS011;10898;48.072;11.682;2023-05-10T03:01:46;1.55;;;0.80;;
21472;SDS011;10898;48.072;11.682;2023-05-10T03:03:48;2.63;;;0.98;;
21472;SDS011;10898;48.072;11.682;2023-05-10T03:05:51;1.13;;;1.02;;
21472;SDS011;10898;48.072;11.682;2023-05-10T03:07:57;0.90;;;0.85;;
21472;SDS011;10898;48.072;11.682;2023-05-10T03:09:59;0.68;;;0.68;;
21472;SDS011;10898;48.072;11.682;2023-05-10T03:14:13;1.05;;;0.90;;
21472;SDS011;10898;48.072;11.682;2023-05-10T03:16:22;1.67;;;0.77;;
21472;SDS011;10898;48.072;11.682;2023-05-10T03:18:28;0.75;;;0.75;;
21472;SDS011;10898;48.072;11.682;2023-05-10T03:20:32;0.70;;;0.70;;
21472;SDS011;10898;48.072;11.682;2023-05-10T03:22:38;2.00;;;0.70;;
21472;SDS011;10898;48.072;11.682;2023-05-10T03:24:42;0.70;;;0.70;;
21472;SDS011;10898;48.072;11.682;2023-05-10T03:26:45;0.65;;;0.60;;
21472;SDS011;10898;48.072;11.682;2023-05-10T03:28:47;0.75;;;0.75;;
21472;SDS011;10898;48.072;11.682;2023-05-10T03:30:51;0.80;;;0.80;;
21472;SDS011;10898;48.072;11.682;2023-05-10T03:32:54;1.40;;;0.60;;
21472;SDS011;10898;48.072;11.682;2023-05-10T03:34:58;1.85;;;0.77;;
21472;SDS011;10898;48.072;11.682;2023-05-10T03:37:00;0.75;;;0.73;;
21472;SDS011;10898;48.072;11.682;2023-05-10T03:39:02;0.70;;;0.70;;
21472;SDS011;10898;48.072;11.682;2023-05-10T03:41:04;1.33;;;0.70;;
21472;SDS011;10898;48.072;11.682;2023-05-10T03:43:07;1.85;;;0.55;;
21472;SDS011;10898;48.072;11.682;2023-05-10T03:45:09;1.13;;;0.60;;
21472;SDS011;10898;48.072;11.682;2023-05-10T03:47:11;1.00;;;0.70;;
21472;SDS011;10898;48.072;11.682;2023-05-10T03:49:13;1.17;;;0.65;;
21472;SDS011;10898;48.072;11.682;2023-05-10T03:51:16;0.68;;;0.63;;
21472;SDS011;10898;48.072;11.682;2023-05-10T03:53:18;0.93;;;0.60;;
21472;SDS011;10898;48.072;11.682;2023-05-10T03:55:20;0.85;;;0.60;;
21472;SDS011;10898;48.072;11.682;2023-05-10T03:57:23;1.10;;;0.50;;
21472;SDS011;10898;48.072;11.682;2023-05-10T03:59:25;0.50;;;0.50;;
21472;SDS011;10898;48.072;11.682;2023-05-10T04:01:28;0.63;;;0.50;;
21472;SDS011;10898;48.072;11.682;2023-05-10T04:03:30;2.55;;;0.70;;
21472;SDS011;10898;48.072;11.682;2023-05-10T04:05:32;0.60;;;0.50;;
21472;SDS011;10898;48.072;11.682;2023-05-10T04:07:34;1.48;;;0.65;;
21472;SDS011;10898;48.072;11.682;2023-05-10T04:09:37;1.05;;;0.43;;
21472;SDS011;10898;48.072;11.682;2023-05-10T04:11:39;2.05;;;0.60;;
21472;SDS011;10898;48.072;11.682;2023-05-10T04:13:41;0.50;;;0.50;;
21472;SDS011;10898;48.072;11.682;2023-05-10T04:15:44;1.77;;;0.80;;
21472;SDS011;10898;48.072;11.682;2023-05-10T04:17:46;2.60;;;0.63;;
21472;SDS011;10898;48.072;11.682;2023-05-10T04:19:48;4.10;;;0.75;;
21472;SDS011;10898;48.072;11.682;2023-05-10T04:21:54;0.50;;;0.50;;
21472;SDS011;10898;48.072;11.682;2023-05-10T04:23:56;0.50;;;0.50;;
21472;SDS011;10898;48.072;11.682;2023-05-10T04:25:59;0.60;;;0.60;;
21472;SDS011;10898;48.072;11.682;2023-05-10T04:28:01;0.60;;;0.60;;
21472;SDS011;10898;48.072;11.682;2023-05-10T04:30:04;1.17;;;0.70;;
21472;SDS011;10898;48.072;11.682;2023-05-10T04:32:06;2.15;;;0.60;;
21472;SDS011;10898;48.072;11.682;2023-05-10T04:34:09;0.50;;;0.50;;
21472;SDS011;10898;48.072;11.682;2023-05-10T04:36:11;6.68;;;1.63;;
21472;SDS011;10898;48.072;11.682;2023-05-10T04:38:13;1.95;;;0.73;;
21472;SDS011;10898;48.072;11.682;2023-05-10T04:40:15;0.50;;;0.40;;
21472;SDS011;10898;48.072;11.682;2023-05-10T04:42:18;0.95;;;0.43;;
21472;SDS011;10898;48.072;11.682;2023-05-10T04:44:20;0.60;;;0.50;;
21472;SDS011;10898;48.072;11.682;2023-05-10T04:46:22;0.65;;;0.43;;
21472;SDS011;10898;48.072;11.682;2023-05-10T04:48:25;0.52;;;0.52;;
21472;SDS011;10898;48.072;11.682;2023-05-10T04:50:27;0.50;;;0.50;;
21472;SDS011;10898;48.072;11.682;2023-05-10T04:52:29;0.60;;;0.60;;
21472;SDS011;10898;48.072;11.682;2023-05-10T04:54:31;0.90;;;0.50;;
21472;SDS011;10898;48.072;11.682;2023-05-10T04:56:33;0.98;;;0.50;;
21472;SDS011;10898;48.072;11.682;2023-05-10T04:58:36;1.45;;;0.50;;
21472;SDS011;10898;48.072;11.682;2023-05-10T05:00:38;1.85;;;0.60;;
21472;SDS011;10898;48.072;11.682;2023-05-10T05:02:44;1.42;;;0.57;;
21472;SDS011;10898;48.072;11.682;2023-05-10T05:04:46;0.90;;;0.55;;
21472;SDS011;10898;48.072;11.682;2023-05-10T05:06:49;3.58;;;0.70;;
21472;SDS011;10898;48.072;11.682;2023-05-10T05:08:54;0.50;;;0.50;;
21472;SDS011;10898;48.072;11.682;2023-05-10T05:10:56;0.93;;;0.50;;
21472;SDS011;10898;48.072;11.682;2023-05-10T05:12:58;0.90;;;0.50;;
21472;SDS011;10898;48.072;11.682;2023-05-10T05:15:01;1.42;;;0.55;;
21472;SDS011;10898;48.072;11.682;2023-05-10T05:17:03;1.20;;;0.50;;
21472;SDS011;10898;48.072;11.682;2023-05-10T05:19:06;1.15;;;0.40;;
21472;SDS011;10898;48.072;11.682;2023-05-10T05:21:17;0.43;;;0.43;;
21472;SDS011;10898;48.072;11.682;2023-05-10T05:23:20;0.52;;;0.50;;
21472;SDS011;10898;48.072;11.682;2023-05-10T05:25:25;0.85;;;0.52;;
21472;SDS011;10898;48.072;11.682;2023-05-10T05:27:28;1.00;;;0.65;;
21472;SDS011;10898;48.072;11.682;2023-05-10T05:29:30;1.85;;;0.57;;
21472;SDS011;10898;48.072;11.682;2023-05-10T05:31:32;0.40;;;0.40;;
21472;SDS011;10898;48.072;11.682;2023-05-10T05:33:35;0.73;;;0.50;;
21472;SDS011;10898;48.072;11.682;2023-05-10T05:35:37;0.47;;;0.47;;
21472;SDS011;10898;48.072;11.682;2023-05-10T05:37:39;0.80;;;0.60;;
21472;SDS011;10898;48.072;11.682;2023-05-10T05:39:41;0.70;;;0.70;;
21472;SDS011;10898;48.072;11.682;2023-05-10T05:41:44;2.97;;;0.63;;
21472;SDS011;10898;48.072;11.682;2023-05-10T05:43:47;0.77;;;0.60;;
21472;SDS011;10898;48.072;11.682;2023-05-10T05:45:49;0.98;;;0.57;;
21472;SDS011;10898;48.072;11.682;2023-05-10T05:47:51;0.60;;;0.60;;
21472;SDS011;10898;48.072;11.682;2023-05-10T05:49:54;0.70;;;0.70;;
21472;SDS011;10898;48.072;11.682;2023-05-10T05:51:59;0.70;;;0.60;;
21472;SDS011;10898;48.072;11.682;2023-05-10T05:54:02;0.95;;;0.70;;
21472;SDS011;10898;48.072;11.682;2023-05-10T05:56:05;0.70;;;0.70;;
21472;SDS011;10898;48.072;11.682;2023-05-10T05:58:07;4.57;;;0.77;;
21472;SDS011;10898;48.072;11.682;2023-05-10T06:00:10;0.70;;;0.70;;
21472;SDS011;10898;48.072;11.682;2023-05-10T06:02:12;0.50;;;0.50;;
21472;SDS011;10898;48.072;11.682;2023-05-10T06:04:14;0.60;;;0.60;;
21472;SDS011;10898;48.072;11.682;2023-05-10T06:06:17;0.95;;;0.82;;
21472;SDS011;10898;48.072;11.682;2023-05-10T06:08:19;3.63;;;0.80;;
21472;SDS011;10898;48.072;11.682;2023-05-10T06:10:22;0.70;;;0.70;;
21472;SDS011;10898;48.072;11.682;2023-05-10T06:12:24;1.27;;;0.68;;
21472;SDS011;10898;48.072;11.682;2023-05-10T06:14:26;1.33;;;0.90;;
21472;SDS011;10898;48.072;11.682;2023-05-10T06:16:28;1.63;;;0.80;;
21472;SDS011;10898;48.072;11.682;2023-05-10T06:18:31;1.85;;;0.70;;
21472;SDS011;10898;48.072;11.682;2023-05-10T06:20:33;2.28;;;0.80;;
21472;SDS011;10898;48.072;11.682;2023-05-10T06:22:35;0.88;;;0.63;;
21472;SDS011;10898;48.072;11.682;2023-05-10T06:24:37;0.75;;;0.70;;
21472;SDS011;10898;48.072;11.682;2023-05-10T06:26:40;0.70;;;0.70;;
21472;SDS011;10898;48.072;11.682;2023-05-10T06:28:42;0.95;;;0.80;;
21472;SDS011;10898;48.072;11.682;2023-05-10T06:30:44;1.27;;;0.90;;
21472;SDS011;10898;48.072;11.682;2023-05-10T06:32:46;0.90;;;0.90;;
21472;SDS011;10898;48.072;11.682;2023-05-10T06:34:48;0.70;;;0.70;;
21472;SDS011;10898;48.072;11.682;2023-05-10T06:36:51;1.42;;;1.08;;
21472;SDS011;10898;48.072;11.682;2023-05-10T06:38:53;1.73;;;1.35;;
21472;SDS011;10898;48.072;11.682;2023-05-10T06:40:56;1.02;;;0.90;;
21472;SDS011;10898;48.072;11.682;2023-05-10T06:42:58;0.90;;;0.90;;
21472;SDS011;10898;48.072;11.682;2023-05-10T06:45:00;1.48;;;0.88;;
21472;SDS011;10898;48.072;11.682;2023-05-10T06:47:03;1.35;;;1.00;;
21472;SDS011;10898;48.072;11.682;2023-05-10T06:49:05;2.00;;;0.90;;
21472;SDS011;10898;48.072;11.682;2023-05-10T06:51:07;3.10;;;0.90;;
21472;SDS011;10898;48.072;11.682;2023-05-10T06:53:10;3.08;;;1.88;;
21472;SDS011;10898;48.072;11.682;2023-05-10T06:55:13;1.95;;;1.35;;
21472;SDS011;10898;48.072;11.682;2023-05-10T06:57:15;3.22;;;2.13;;
21472;SDS011;10898;48.072;11.682;2023-05-10T06:59:31;2.20;;;2.00;;
21472;SDS011;10898;48.072;11.682;2023-05-10T07:01:34;1.67;;;1.35;;
21472;SDS011;10898;48.072;11.682;2023-05-10T07:03:36;2.45;;;1.25;;
21472;SDS011;10898;48.072;11.682;2023-05-10T07:05:38;1.73;;;1.17;;
21472;SDS011;10898;48.072;11.682;2023-05-10T07:07:41;1.00;;;1.00;;
21472;SDS011;10898;48.072;11.682;2023-05-10T07:09:43;0.95;;;0.88;;
21472;SDS011;10898;48.072;11.682;2023-05-10T07:11:46;1.15;;;1.05;;
21472;SDS011;10898;48.072;11.682;2023-05-10T07:13:48;1.90;;;1.08;;
21472;SDS011;10898;48.072;11.682;2023-05-10T07:15:50;1.70;;;1.00;;
21472;SDS011;10898;48.072;11.682;2023-05-10T07:17:52;1.48;;;1.10;;
21472;SDS011;10898;48.072;11.682;2023-05-10T07:19:55;1.98;;;1.20;;
21472;SDS011;10898;48.072;11.682;2023-05-10T07:21:57;1.58;;;1.30;;
21472;SDS011;10898;48.072;11.682;2023-05-10T07:23:59;2.45;;;1.27;;
21472;SDS011;10898;48.072;11.682;2023-05-10T07:26:02;0.98;;;0.98;;
21472;SDS011;10898;48.072;11.682;2023-05-10T07:28:04;0.90;;;0.90;;
21472;SDS011;10898;48.072;11.682;2023-05-10T07:30:06;2.78;;;1.48;;
21472;SDS011;10898;48.072;11.682;2023-05-10T07:32:09;2.25;;;1.20;;
21472;SDS011;10898;48.072;11.682;2023-05-10T07:34:11;1.23;;;1.02;;
21472;SDS011;10898;48.072;11.682;2023-05-10T07:36:13;2.53;;;0.95;;
21472;SDS011;10898;48.072;11.682;2023-05-10T07:38:15;2.33;;;1.00;;
21472;SDS011;10898;48.072;11.682;2023-05-10T07:42:21;0.90;;;0.90;;
21472;SDS011;10898;48.072;11.682;2023-05-10T07:44:23;1.10;;;1.00;;
21472;SDS011;10898;48.072;11.682;2023-05-10T07:46:25;3.03;;;1.20;;
21472;SDS011;10898;48.072;11.682;2023-05-10T07:48:27;1.08;;;1.00;;
21472;SDS011;10898;48.072;11.682;2023-05-10T07:50:29;0.93;;;0.85;;
21472;SDS011;10898;48.072;11.682;2023-05-10T07:52:32;1.58;;;1.08;;
21472;SDS011;10898;48.072;11.682;2023-05-10T07:54:35;1.15;;;1.05;;
21472;SDS011;10898;48.072;11.682;2023-05-10T07:56:37;1.05;;;0.98;;
21472;SDS011;10898;48.072;11.682;2023-05-10T07:58:41;1.08;;;1.08;;
21472;SDS011;10898;48.072;11.682;2023-05-10T08:00:43;1.35;;;1.10;;
21472;SDS011;10898;48.072;11.682;2023-05-10T08:02:45;2.03;;;1.17;;
21472;SDS011;10898;48.072;11.682;2023-05-10T08:06:50;1.38;;;1.00;;
21472;SDS011;10898;48.072;11.682;2023-05-10T08:08:52;0.73;;;0.73;;
21472;SDS011;10898;48.072;11.682;2023-05-10T08:10:55;0.88;;;0.88;;
21472;SDS011;10898;48.072;11.682;2023-05-10T08:12:57;1.00;;;1.00;;
21472;SDS011;10898;48.072;11.682;2023-05-10T08:14:59;1.17;;;1.10;;
21472;SDS011;10898;48.072;11.682;2023-05-10T08:17:02;3.78;;;1.02;;
21472;SDS011;10898;48.072;11.682;2023-05-10T08:19:04;1.52;;;1.10;;
21472;SDS011;10898;48.072;11.682;2023-05-10T08:21:07;2.17;;;1.20;;
21472;SDS011;10898;48.072;11.682;2023-05-10T08:23:09;2.08;;;0.77;;
21472;SDS011;10898;48.072;11.682;2023-05-10T08:25:11;2.78;;;1.00;;
21472;SDS011;10898;48.072;11.682;2023-05-10T08:27:13;1.70;;;1.35;;
21472;SDS011;10898;48.072;11.682;2023-05-10T08:29:16;2.95;;;1.10;;
21472;SDS011;10898;48.072;11.682;2023-05-10T08:31:18;0.90;;;0.90;;
21472;SDS011;10898;48.072;11.682;2023-05-10T08:33:20;0.80;;;0.80;;
21472;SDS011;10898;48.072;11.682;2023-05-10T08:35:22;1.00;;;0.90;;
21472;SDS011;10898;48.072;11.682;2023-05-10T08:37:25;0.60;;;0.60;;
21472;SDS011;10898;48.072;11.682;2023-05-10T08:39:27;0.95;;;0.90;;
21472;SDS011;10898;48.072;11.682;2023-05-10T08:41:31;1.13;;;0.70;;
21472;SDS011;10898;48.072;11.682;2023-05-10T08:43:35;1.60;;;0.90;;
21472;SDS011;10898;48.072;11.682;2023-05-10T08:45:38;0.85;;;0.70;;
21472;SDS011;10898;48.072;11.682;2023-05-10T08:47:41;0.80;;;0.80;;
21472;SDS011;10898;48.072;11.682;2023-05-10T08:49:44;0.90;;;0.90;;
21472;SDS011;10898;48.072;11.682;2023-05-10T08:51:54;0.73;;;0.73;;
21472;SDS011;10898;48.072;11.682;2023-05-10T08:53:57;0.73;;;0.73;;
21472;SDS011;10898;48.072;11.682;2023-05-10T08:56:00;2.80;;;1.10;;
21472;SDS011;10898;48.072;11.682;2023-05-10T08:58:03;0.82;;;0.80;;
21472;SDS011;10898;48.072;11.682;2023-05-10T09:00:05;0.70;;;0.70;;
21472;SDS011;10898;48.072;11.682;2023-05-10T09:02:09;1.58;;;1.00;;
21472;SDS011;10898;48.072;11.682;2023-05-10T09:04:12;1.88;;;0.90;;
21472;SDS011;10898;48.072;11.682;2023-05-10T09:06:14;2.30;;;0.93;;
21472;SDS011;10898;48.072;11.682;2023-05-10T09:08:17;5.70;;;0.90;;
21472;SDS011;10898;48.072;11.682;2023-05-10T09:10:19;1.77;;;1.02;;
21472;SDS011;10898;48.072;11.682;2023-05-10T09:12:23;1.30;;;1.20;;
21472;SDS011;10898;48.072;11.682;2023-05-10T09:14:25;1.92;;;0.90;;
21472;SDS011;10898;48.072;11.682;2023-05-10T09:16:28;2.15;;;0.90;;
21472;SDS011;10898;48.072;11.682;2023-05-10T09:18:30;1.10;;;1.00;;
21472;SDS011;10898;48.072;11.682;2023-05-10T09:20:33;1.27;;;0.90;;
21472;SDS011;10898;48.072;11.682;2023-05-10T09:22:35;1.75;;;0.90;;
21472;SDS011;10898;48.072;11.682;2023-05-10T09:24:39;2.63;;;1.20;;
21472;SDS011;10898;48.072;11.682;2023-05-10T09:26:46;1.25;;;1.15;;
21472;SDS011;10898;48.072;11.682;2023-05-10T09:28:53;1.42;;;0.80;;
21472;SDS011;10898;48.072;11.682;2023-05-10T09:30:56;4.03;;;1.00;;
21472;SDS011;10898;48.072;11.682;2023-05-10T09:32:59;1.92;;;1.25;;
21472;SDS011;10898;48.072;11.682;2023-05-10T09:35:08;1.42;;;1.00;;
21472;SDS011;10898;48.072;11.682;2023-05-10T09:37:11;0.90;;;0.90;;
21472;SDS011;10898;48.072;11.682;2023-05-10T09:39:13;1.00;;;1.00;;
21472;SDS011;10898;48.072;11.682;2023-05-10T09:41:19;0.80;;;0.80;;
21472;SDS011;10898;48.072;11.682;2023-05-10T09:43:25;0.93;;;0.80;;
21472;SDS011;10898;48.072;11.682;2023-05-10T09:45:29;1.60;;;1.10;;
21472;SDS011;10898;48.072;11.682;2023-05-10T09:47:32;1.15;;;0.98;;
21472;SDS011;10898;48.072;11.682;2023-05-10T09:49:35;1.40;;;1.30;;
21472;SDS011;10898;48.072;11.682;2023-05-10T09:51:38;1.42;;;1.05;;
21472;SDS011;10898;48.072;11.682;2023-05-10T09:53:40;1.35;;;1.20;;
21472;SDS011;10898;48.072;11.682;2023-05-10T09:55:43;2.10;;;1.30;;
21472;SDS011;10898;48.072;11.682;2023-05-10T09:57:47;1.80;;;1.08;;
21472;SDS011;10898;48.072;11.682;2023-05-10T09:59:50;1.75;;;1.20;;
21472;SDS011;10898;48.072;11.682;2023-05-10T10:01:58;2.35;;;0.93;;
21472;SDS011;10898;48.072;11.682;2023-05-10T10:04:03;1.88;;;0.90;;
21472;SDS011;10898;48.072;11.682;2023-05-10T10:06:07;1.98;;;1.02;;
21472;SDS011;10898;48.072;11.682;2023-05-10T10:08:26;2.53;;;1.67;;
21472;SDS011;10898;48.072;11.682;2023-05-10T10:10:29;3.45;;;1.27;;
21472;SDS011;10898;48.072;11.682;2023-05-10T10:12:33;1.00;;;0.90;;
21472;SDS011;10898;48.072;11.682;2023-05-10T10:14:35;1.15;;;1.02;;
21472;SDS011;10898;48.072;11.682;2023-05-10T10:16:37;1.95;;;0.82;;
21472;SDS011;10898;48.072;11.682;2023-05-10T10:18:55;2.33;;;1.00;;
21472;SDS011;10898;48.072;11.682;2023-05-10T10:23:00;0.90;;;0.80;;
21472;SDS011;10898;48.072;11.682;2023-05-10T10:25:03;1.20;;;1.10;;
21472;SDS011;10898;48.072;11.682;2023-05-10T10:27:13;0.70;;;0.70;;
21472;SDS011;10898;48.072;11.682;2023-05-10T10:29:23;1.70;;;0.77;;
21472;SDS011;10898;48.072;11.682;2023-05-10T10:33:36;1.00;;;0.60;;
21472;SDS011;10898;48.072;11.682;2023-05-10T10:35:41;2.10;;;0.82;;
21472;SDS011;10898;48.072;11.682;2023-05-10T10:37:45;0.80;;;0.80;;
21472;SDS011;10898;48.072;11.682;2023-05-10T10:39:48;0.82;;;0.73;;
21472;SDS011;10898;48.072;11.682;2023-05-10T10:46:15;1.58;;;0.65;;
21472;SDS011;10898;48.072;11.682;2023-05-10T10:48:22;2.28;;;0.88;;
21472;SDS011;10898;48.072;11.682;2023-05-10T10:50:24;1.50;;;0.90;;
21472;SDS011;10898;48.072;11.682;2023-05-10T10:52:33;0.70;;;0.70;;
21472;SDS011;10898;48.072;11.682;2023-05-10T10:54:36;2.15;;;1.00;;
21472;SDS011;10898;48.072;11.682;2023-05-10T10:56:38;2.38;;;0.80;;
21472;SDS011;10898;48.072;11.682;2023-05-10T10:58:41;1.13;;;0.75;;
21472;SDS011;10898;48.072;11.682;2023-05-10T11:00:43;2.72;;;0.85;;
21472;SDS011;10898;48.072;11.682;2023-05-10T11:02:47;2.28;;;0.85;;
21472;SDS011;10898;48.072;11.682;2023-05-10T11:04:50;2.00;;;0.93;;
21472;SDS011;10898;48.072;11.682;2023-05-10T11:06:52;1.00;;;1.00;;
21472;SDS011;10898;48.072;11.682;2023-05-10T11:09:14;3.30;;;0.90;;
21472;SDS011;10898;48.072;11.682;2023-05-10T11:11:16;2.28;;;0.88;;
21472;SDS011;10898;48.072;11.682;2023-05-10T11:13:32;1.70;;;0.73;;
21472;SDS011;10898;48.072;11.682;2023-05-10T11:15:36;1.25;;;0.70;;
21472;SDS011;10898;48.072;11.682;2023-05-10T11:17:38;0.93;;;0.80;;
21472;SDS011;10898;48.072;11.682;2023-05-10T11:19:57;1.90;;;0.90;;
21472;SDS011;10898;48.072;11.682;2023-05-10T11:24:12;0.95;;;0.70;;
21472;SDS011;10898;48.072;11.682;2023-05-10T11:26:14;0.65;;;0.65;;
21472;SDS011;10898;48.072;11.682;2023-05-10T11:28:17;0.77;;;0.70;;
21472;SDS011;10898;48.072;11.682;2023-05-10T11:30:21;2.95;;;0.82;;
21472;SDS011;10898;48.072;11.682;2023-05-10T11:32:23;1.92;;;1.10;;
21472;SDS011;10898;48.072;11.682;2023-05-10T11:34:26;1.52;;;1.10;;
21472;SDS011;10898;48.072;11.682;2023-05-10T11:36:29;1.52;;;1.00;;
21472;SDS011;10898;48.072;11.682;2023-05-10T11:38:34;3.47;;;1.23;;
21472;SDS011;10898;48.072;11.682;2023-05-10T11:40:36;1.52;;;1.00;;
21472;SDS011;10898;48.072;11.682;2023-05-10T11:42:39;1.85;;;1.38;;
21472;SDS011;10898;48.072;11.682;2023-05-10T11:44:41;1.50;;;1.20;;
21472;SDS011;10898;48.072;11.682;2023-05-10T11:46:46;1.60;;;1.20;;
21472;SDS011;10898;48.072;11.682;2023-05-10T11:48:49;1.05;;;1.00;;
21472;SDS011;10898;48.072;11.682;2023-05-10T11:50:52;4.18;;;1.17;;
21472;SDS011;10898;48.072;11.682;2023-05-10T11:52:58;1.02;;;0.93;;
21472;SDS011;10898;48.072;11.682;2023-05-10T11:55:00;2.30;;;0.90;;
21472;SDS011;10898;48.072;11.682;2023-05-10T11:57:03;2.88;;;1.05;;
21472;SDS011;10898;48.072;11.682;2023-05-10T11:59:06;1.33;;;0.90;;
21472;SDS011;10898;48.072;11.682;2023-05-10T12:01:09;3.88;;;1.05;;
21472;SDS011;10898;48.072;11.682;2023-05-10T12:03:13;1.42;;;1.20;;
21472;SDS011;10898;48.072;11.682;2023-05-10T12:05:15;4.13;;;1.35;;
21472;SDS011;10898;48.072;11.682;2023-05-10T12:07:18;1.23;;;1.13;;
21472;SDS011;10898;48.072;11.682;2023-05-10T12:09:20;2.60;;;1.33;;
21472;SDS011;10898;48.072;11.682;2023-05-10T12:11:40;3.83;;;1.52;;
21472;SDS011;10898;48.072;11.682;2023-05-10T12:13:44;1.83;;;1.38;;
21472;SDS011;10898;48.072;11.682;2023-05-10T12:15:49;2.38;;;1.60;;
21472;SDS011;10898;48.072;11.682;2023-05-10T12:17:52;1.80;;;1.50;;
21472;SDS011;10898;48.072;11.682;2023-05-10T12:19:58;7.50;;;1.80;;
21472;SDS011;10898;48.072;11.682;2023-05-10T12:22:03;2.50;;;1.75;;
21472;SDS011;10898;48.072;11.682;2023-05-10T12:24:06;1.70;;;1.45;;
21472;SDS011;10898;48.072;11.682;2023-05-10T12:28:11;3.15;;;1.13;;
21472;SDS011;10898;48.072;11.682;2023-05-10T12:30:18;2.13;;;1.13;;
21472;SDS011;10898;48.072;11.682;2023-05-10T12:32:21;1.70;;;1.10;;
21472;SDS011;10898;48.072;11.682;2023-05-10T12:34:24;1.73;;;1.05;;
21472;SDS011;10898;48.072;11.682;2023-05-10T12:36:26;1.33;;;0.80;;
21472;SDS011;10898;48.072;11.682;2023-05-10T12:38:31;0.90;;;0.90;;
21472;SDS011;10898;48.072;11.682;2023-05-10T12:40:33;1.73;;;1.05;;
21472;SDS011;10898;48.072;11.682;2023-05-10T12:42:36;1.48;;;0.90;;
21472;SDS011;10898;48.072;11.682;2023-05-10T12:44:39;8.38;;;1.30;;
21472;SDS011;10898;48.072;11.682;2023-05-10T12:46:42;1.67;;;1.00;;
21472;SDS011;10898;48.072;11.682;2023-05-10T12:48:44;1.92;;;1.38;;
21472;SDS011;10898;48.072;11.682;2023-05-10T12:50:47;3.03;;;1.13;;
21472;SDS011;10898;48.072;11.682;2023-05-10T12:52:49;1.40;;;1.30;;